Terminal Aerodrome Forecast
Issued by NWS Grand Forks, ND

Home | Current Version | Previous Version | Graphics & Text | Print | Product List | Glossary Off
Versions: 1 2 3 4 5 6 7 8 9 10 11 12 13 14 15 16 17 18

519
FTUS43 KFGF 290520
TAFFAR
TAF
KFAR 290520Z 2906/3006 31005KT P6SM BKN015
      TEMPO 2909/2912 1SM BR SCT008
     FM291200 34005KT 5SM BR BKN008
     FM291800 33006KT P6SM BKN045
     FM300000 35006KT P6SM SCT090=

USA.gov is the U.S. government's official web portal to all federal, state and local government web resources and services.